Time;durP1;ratioP1;P1;durP2;ratioP2;P2;SDS_P1;SDS_P2;PMS_P1;PMS_P2;Temp;Humidity;BMP_temperature;BMP_pressure;BME280_temperature;BME280_humidity;BME280_pressure;Samples;Min_cycle;Max_cycle;Signal;HPM_P1;HPM_P2
2022/11/22 00:00:44;;;;;;;39.97;25.35;;;;;;;10.03;100.00;100072.19;10294638;28;20035;-71
2022/11/22 00:05:45;;;;;;;40.50;25.60;;;;;;;9.88;100.00;100042.06;10297543;28;20045;-71
2022/11/22 00:17:01;;;;;;;39.60;24.08;;;;;;;9.44;100.00;99981.50;10293807;28;20137;-71
2022/11/22 00:22:02;;;;;;;41.58;24.98;;;;;;;10.10;100.00;100101.53;10296942;28;20534;-71
2022/11/22 00:27:03;;;;;;;44.60;26.88;;;;;;;10.04;100.00;100105.69;10295753;28;20123;-71
2022/11/22 00:32:04;;;;;;;47.42;25.25;;;;;;;10.10;100.00;100103.34;10296182;28;20117;-71
2022/11/22 00:43:03;;;;;;;48.80;26.95;;;;;;;10.11;100.00;100094.38;10296290;28;20031;-71
2022/11/22 00:48:04;;;;;;;45.08;26.83;;;;;;;9.62;100.00;99996.38;10294657;28;20475;-71
2022/11/22 00:53:05;;;;;;;53.35;28.42;;;;;;;9.92;100.00;100045.19;10296226;28;20041;-71
2022/11/22 00:58:06;;;;;;;51.53;27.63;;;;;;;9.98;100.00;100076.34;10294914;28;20034;-71
2022/11/22 01:03:11;;;;;;;48.63;27.27;;;;;;;10.05;100.00;100075.50;10295577;28;20027;-71
2022/11/22 01:08:11;;;;;;;47.53;25.67;;;;;;;9.60;100.00;99996.53;10294800;28;20465;-71
2022/11/22 01:13:12;;;;;;;47.72;26.65;;;;;;;9.98;100.00;100079.00;10276977;28;20027;-71
2022/11/22 01:18:13;;;;;;;51.95;27.48;;;;;;;9.94;100.00;100065.25;10294995;28;20042;-71
2022/11/22 01:23:14;;;;;;;56.15;27.75;;;;;;;10.04;100.00;100063.22;10294632;28;20030;-72
2022/11/22 01:28:15;;;;;;;51.80;28.40;;;;;;;10.00;100.00;100061.09;10293564;28;20478;-71
2022/11/22 01:39:32;;;;;;;49.53;27.27;;;;;;;10.00;100.00;100077.00;10292591;28;20031;-70
2022/11/22 01:50:21;;;;;;;48.90;26.85;;;;;;;10.10;100.00;100092.72;10293946;28;20041;-71
2022/11/22 01:55:22;;;;;;;50.05;26.77;;;;;;;10.12;100.00;100098.72;10292735;28;20498;-71
2022/11/22 02:00:23;;;;;;;49.70;26.95;;;;;;;10.05;100.00;100070.19;10293752;28;20046;-71
2022/11/22 02:05:28;;;;;;;46.35;25.55;;;;;;;9.98;100.00;100084.31;10292168;28;20034;-71
2022/11/22 02:10:34;;;;;;;49.40;25.73;;;;;;;9.89;100.00;100069.41;10308064;28;20031;-70
2022/11/22 02:15:35;;;;;;;53.90;26.65;;;;;;;10.02;100.00;100096.22;10292897;28;20034;-71
2022/11/22 02:20:37;;;;;;;61.65;28.05;;;;;;;9.19;100.00;99950.75;10293260;28;20055;-71
2022/11/22 02:25:50;;;;;;;51.90;27.20;;;;;;;9.63;100.00;100035.97;10290998;28;20031;-71
2022/11/22 02:30:51;;;;;;;55.55;26.60;;;;;;;9.83;100.00;100068.25;10291582;28;20066;-71
2022/11/22 02:35:52;;;;;;;50.35;26.00;;;;;;;10.11;100.00;100103.19;10290747;28;20082;-72
2022/11/22 02:41:01;;;;;;;47.33;25.58;;;;;;;9.86;100.00;100041.38;10291931;28;20038;-70
2022/11/22 02:46:11;;;;;;;58.72;27.92;;;;;;;10.23;100.00;100095.66;10292003;28;20031;-71
2022/11/22 02:57:28;;;;;;;54.67;26.55;;;;;;;10.25;100.00;100107.75;10290107;28;20039;-70
2022/11/22 03:02:28;;;;;;;51.88;26.35;;;;;;;9.41;100.00;99952.69;10288625;28;20035;-70
2022/11/22 03:07:30;;;;;;;54.28;25.23;;;;;;;10.37;100.00;100100.28;10291529;28;20049;-71
2022/11/22 03:12:30;;;;;;;62.15;28.15;;;;;;;10.34;100.00;100091.84;10290987;28;20070;-70
2022/11/22 03:17:31;;;;;;;60.85;28.20;;;;;;;10.19;100.00;100075.78;10288606;28;20070;-70
2022/11/22 03:22:32;;;;;;;64.95;28.75;;;;;;;10.30;100.00;100104.66;10291475;28;20034;-71
2022/11/22 03:27:33;;;;;;;67.80;29.00;;;;;;;10.30;100.00;100091.38;10290895;28;20471;-71
2022/11/22 03:32:34;;;;;;;63.00;29.02;;;;;;;10.30;100.00;100090.53;10270525;28;20466;-71
2022/11/22 03:37:34;;;;;;;59.47;28.75;;;;;;;10.25;100.00;100097.16;10292230;28;20485;-71
2022/11/22 03:42:36;;;;;;;56.65;27.55;;;;;;;10.25;100.00;100097.16;10292174;28;20506;-71
2022/11/22 03:47:36;;;;;;;58.63;28.48;;;;;;;10.44;100.00;100117.19;10316561;28;20058;-72
2022/11/22 03:52:37;;;;;;;60.92;27.52;;;;;;;10.49;100.00;100119.31;10337667;28;20030;-70
2022/11/22 03:57:38;;;;;;;60.50;28.83;;;;;;;10.30;100.00;100074.63;10335394;28;20489;-69
2022/11/22 04:02:39;;;;;;;69.05;28.63;;;;;;;10.32;100.00;100081.41;10296217;28;20125;-68
2022/11/22 04:07:40;;;;;;;64.93;29.95;;;;;;;9.54;100.00;99968.91;10296939;28;20386;-69
2022/11/22 04:12:40;;;;;;;70.30;31.63;;;;;;;10.43;100.00;100109.41;10297124;28;20473;-71
2022/11/22 04:17:43;;;;;;;69.13;31.42;;;;;;;10.34;100.00;100100.63;10296181;28;20054;-69
2022/11/22 04:22:44;;;;;;;66.60;31.48;;;;;;;10.44;100.00;100111.91;10296176;28;20038;-70
2022/11/22 04:27:45;;;;;;;64.47;31.52;;;;;;;10.17;100.00;100067.16;10278664;28;20118;-69
2022/11/22 04:32:46;;;;;;;69.07;32.38;;;;;;;9.59;100.00;99963.88;10295691;28;20046;-69
2022/11/22 04:37:50;;;;;;;69.55;31.35;;;;;;;10.42;100.00;100111.22;10277006;28;20023;-69
2022/11/22 04:48:21;;;;;;;62.10;30.23;;;;;;;10.24;100.00;100065.47;10291616;28;20113;-71
2022/11/22 04:53:22;;;;;;;62.13;30.48;;;;;;;10.56;100.00;100124.78;10294685;28;20494;-71
2022/11/22 04:58:23;;;;;;;62.88;31.55;;;;;;;10.33;100.00;100083.06;10294615;28;20474;-71
2022/11/22 05:03:24;;;;;;;57.28;30.98;;;;;;;10.51;100.00;100098.75;10277506;28;20122;-71
2022/11/22 05:08:24;;;;;;;51.65;27.65;;;;;;;10.52;100.00;100106.53;10290030;28;20039;-69
2022/11/22 05:13:28;;;;;;;59.42;29.02;;;;;;;10.73;100.00;100132.47;10294926;28;20479;-69
2022/11/22 05:18:30;;;;;;;57.60;27.88;;;;;;;10.82;100.00;100145.72;10293518;28;20051;-69
2022/11/22 05:28:51;;;;;;;52.90;27.55;;;;;;;10.83;100.00;100128.78;10293240;28;20121;-70
2022/11/22 05:33:54;;;;;;;52.17;26.55;;;;;;;10.81;100.00;100126.31;10294179;28;20023;-71
2022/11/22 05:38:54;;;;;;;60.78;28.95;;;;;;;10.65;100.00;100086.53;10276507;28;20085;-70
2022/11/22 05:43:56;;;;;;;49.17;27.73;;;;;;;10.77;100.00;100095.78;10275898;28;20539;-70
2022/11/22 05:48:58;;;;;;;45.88;26.95;;;;;;;10.78;100.00;100084.16;10292408;28;20031;-71
2022/11/22 05:53:59;;;;;;;49.08;26.48;;;;;;;10.99;100.00;100127.88;10293019;28;20126;-70
2022/11/22 05:59:00;;;;;;;41.03;25.35;;;;;;;10.74;100.00;100069.56;10292224;28;20035;-71
2022/11/22 06:04:01;;;;;;;46.00;26.83;;;;;;;11.19;100.00;100135.22;10293392;28;20176;-70
2022/11/22 06:09:03;;;;;;;47.05;26.25;;;;;;;11.20;100.00;100114.75;10291898;28;20161;-70
2022/11/22 06:14:07;;;;;;;44.78;24.60;;;;;;;11.09;100.00;100080.59;10292189;28;20043;-70
2022/11/22 06:19:08;;;;;;;44.13;25.98;;;;;;;10.90;100.00;100012.81;10292250;28;20050;-70
2022/11/22 06:24:11;;;;;;;39.17;24.75;;;;;;;11.39;100.00;100087.66;10291671;28;20050;-69
2022/11/22 06:29:11;;;;;;;42.90;26.10;;;;;;;11.41;100.00;100072.38;10291850;28;20049;-70
2022/11/22 06:34:12;;;;;;;49.30;25.58;;;;;;;11.48;100.00;100076.97;10291244;28;20097;-70
2022/11/22 06:39:13;;;;;;;44.28;25.85;;;;;;;11.43;100.00;100065.03;10274439;28;20085;-70
2022/11/22 06:44:14;;;;;;;43.72;25.33;;;;;;;11.57;100.00;100076.69;10291233;28;20027;-70
2022/11/22 06:49:15;;;;;;;39.17;24.83;;;;;;;11.61;100.00;100079.84;10292056;28;20125;-70
2022/11/22 06:54:16;;;;;;;37.88;23.90;;;;;;;11.72;100.00;100087.38;10290719;28;20035;-70
2022/11/22 06:59:16;;;;;;;38.55;24.17;;;;;;;11.80;100.00;100084.63;10291178;28;20062;-70
2022/11/22 07:04:17;;;;;;;40.47;24.60;;;;;;;11.93;100.00;100075.22;10291639;28;20035;-70
2022/11/22 07:09:18;;;;;;;68.93;42.03;;;;;;;11.87;100.00;100027.00;10293404;28;20035;-71
2022/11/22 07:14:19;;;;;;;51.95;30.77;;;;;;;11.99;100.00;100040.69;10299606;28;20038;-71
2022/11/22 07:19:20;;;;;;;47.08;29.40;;;;;;;11.65;100.00;99956.91;10298851;28;20089;-71
2022/11/22 07:24:21;;;;;;;39.17;24.17;;;;;;;11.58;100.00;99942.69;10298547;28;20189;-70
2022/11/22 07:29:21;;;;;;;49.92;29.45;;;;;;;12.01;100.00;100014.72;10298889;28;20053;-69
2022/11/22 07:34:22;;;;;;;45.60;25.50;;;;;;;12.16;100.00;99998.72;10298482;28;20044;-70
2022/11/22 07:39:23;;;;;;;42.20;23.92;;;;;;;12.26;100.00;99985.94;10297615;28;20093;-70
2022/11/22 07:44:24;;;;;;;39.05;24.30;;;;;;;12.36;100.00;99998.16;10297733;28;20042;-70
2022/11/22 07:49:25;;;;;;;40.45;23.95;;;;;;;12.01;100.00;99965.97;10297319;28;20062;-70
2022/11/22 07:54:26;;;;;;;33.03;23.10;;;;;;;11.54;100.00;99884.72;10296276;28;20046;-70
2022/11/22 07:59:27;;;;;;;42.90;24.40;;;;;;;12.51;100.00;100046.88;10292103;28;20042;-71
2022/11/22 08:04:32;;;;;;;37.03;22.98;;;;;;;12.59;100.00;100020.09;10286889;28;20377;-72
2022/11/22 08:09:33;;;;;;;36.05;21.65;;;;;;;12.70;100.00;100024.94;10289219;28;20542;-71
2022/11/22 08:14:33;;;;;;;36.92;23.15;;;;;;;12.73;100.00;100007.75;10295250;28;20111;-70
2022/11/22 08:19:34;;;;;;;39.30;24.70;;;;;;;12.56;100.00;99972.50;10296694;28;20372;-70
2022/11/22 08:24:35;;;;;;;34.13;22.40;;;;;;;12.76;100.00;100005.50;10293705;28;20061;-70
2022/11/22 08:29:36;;;;;;;45.63;29.75;;;;;;;12.73;100.00;100013.88;10288923;28;20137;-71
2022/11/22 08:34:36;;;;;;;37.15;24.52;;;;;;;12.61;100.00;99963.97;10292985;28;20038;-71
2022/11/22 08:39:37;;;;;;;37.03;23.17;;;;;;;12.85;100.00;99989.41;10293394;28;20049;-71
2022/11/22 08:44:38;;;;;;;31.33;21.50;;;;;;;12.73;100.00;99973.91;10290761;28;20034;-71
2022/11/22 08:49:39;;;;;;;33.85;22.25;;;;;;;12.82;100.00;99965.78;10294399;28;20062;-71
2022/11/22 08:54:40;;;;;;;41.05;21.90;;;;;;;12.24;100.00;99859.31;10294140;28;20097;-70
2022/11/22 08:59:40;;;;;;;32.53;20.67;;;;;;;12.67;100.00;99913.38;10294503;28;20522;-70
2022/11/22 09:04:41;;;;;;;33.25;20.80;;;;;;;12.45;100.00;99864.63;10294339;28;20056;-70
2022/11/22 09:09:42;;;;;;;36.05;21.10;;;;;;;13.09;100.00;99932.16;10294199;28;20487;-70
2022/11/22 09:14:42;;;;;;;38.70;22.15;;;;;;;13.04;100.00;99882.06;10294919;28;20037;-70
2022/11/22 09:19:43;;;;;;;31.50;19.73;;;;;;;12.84;100.00;99839.31;10269938;28;20487;-69
2022/11/22 09:24:44;;;;;;;39.35;22.67;;;;;;;12.75;100.00;99835.97;10291566;28;20043;-70
2022/11/22 09:29:45;;;;;;;29.35;19.58;;;;;;;13.21;100.00;99920.75;10275868;28;20042;-70
2022/11/22 09:34:45;;;;;;;31.88;19.30;;;;;;;13.19;100.00;99906.81;10292548;28;20041;-70
2022/11/22 09:39:46;;;;;;;29.52;19.80;;;;;;;12.74;100.00;99807.69;10275818;28;20375;-70
2022/11/22 09:45:08;;;;;;;28.73;18.98;;;;;;;13.12;100.00;99879.25;10292808;28;20023;-70
2022/11/22 09:50:25;;;;;;;30.75;19.60;;;;;;;13.21;100.00;99901.25;10292741;28;20066;-70
2022/11/22 09:55:48;;;;;;;26.77;17.33;;;;;;;13.22;100.00;99878.91;10292796;28;20035;-71
2022/11/22 10:00:49;;;;;;;23.67;16.57;;;;;;;13.21;100.00;99872.75;10293711;28;20030;-69
2022/11/22 10:05:52;;;;;;;25.80;18.52;;;;;;;13.18;100.00;99878.47;10292234;28;20089;-70
2022/11/22 10:10:56;;;;;;;24.03;17.33;;;;;;;13.17;100.00;99876.84;10292097;28;20038;-70
2022/11/22 10:16:07;;;;;;;31.27;19.23;;;;;;;13.14;100.00;99877.22;10292816;28;20031;-71
2022/11/22 10:21:12;;;;;;;23.42;15.95;;;;;;;13.16;100.00;99877.00;10206186;29;20272;-70
2022/11/22 10:26:21;;;;;;;27.42;17.30;;;;;;;13.16;100.00;99872.53;10218004;29;20050;-69
2022/11/22 10:31:26;;;;;;;23.00;15.52;;;;;;;13.19;100.00;99892.63;10212951;29;20036;-71
2022/11/22 10:36:41;;;;;;;23.75;15.20;;;;;;;13.22;100.00;99882.41;10212245;29;20111;-70
2022/11/22 10:41:50;;;;;;;18.33;13.20;;;;;;;13.08;100.00;99864.69;10211234;29;20483;-70
2022/11/22 10:47:28;;;;;;;20.73;13.90;;;;;;;13.19;100.00;99893.47;10218339;29;20044;-71
2022/11/22 10:52:31;;;;;;;18.73;13.18;;;;;;;13.15;100.00;99870.88;10218996;29;20122;-69
2022/11/22 10:57:44;;;;;;;20.20;14.53;;;;;;;13.14;100.00;99852.41;10219969;29;20063;-70
2022/11/22 11:03:22;;;;;;;18.80;12.55;;;;;;;13.16;100.00;99867.19;10220121;29;20031;-69
2022/11/22 11:08:38;;;;;;;18.40;12.85;;;;;;;13.16;100.00;99869.88;10219246;29;20043;-69
2022/11/22 11:13:50;;;;;;;21.27;12.05;;;;;;;12.90;100.00;99821.72;10219522;29;20098;-70
2022/11/22 11:19:10;;;;;;;17.83;12.13;;;;;;;13.15;100.00;99868.19;10264366;28;20058;-69
2022/11/22 11:24:13;;;;;;;19.90;11.93;;;;;;;12.56;100.00;99778.00;10298650;28;20069;-68
2022/11/22 11:29:17;;;;;;;17.25;12.60;;;;;;;13.15;100.00;99878.88;10298378;28;20510;-68
2022/11/22 11:34:25;;;;;;;25.23;14.43;;;;;;;13.18;100.00;99875.00;10297812;28;20045;-68
2022/11/22 11:39:31;;;;;;;17.20;12.43;;;;;;;12.60;100.00;99776.63;10295264;28;20030;-68
2022/11/22 11:44:36;;;;;;;18.52;12.20;;;;;;;12.83;100.00;99799.50;10298567;28;20054;-68
2022/11/22 11:49:37;;;;;;;21.95;13.02;;;;;;;13.19;100.00;99856.13;10297069;28;20038;-69
2022/11/22 11:54:42;;;;;;;18.27;12.60;;;;;;;12.88;100.00;99800.56;10296953;28;20490;-68
2022/11/22 11:59:45;;;;;;;;;;;;;;;13.33;100.00;99849.03;10297537;28;20468;-68
2022/11/22 12:04:57;;;;;;;18.20;12.32;;;;;;;13.18;100.00;99859.00;10296742;28;20003;-68
2022/11/22 12:09:59;;;;;;;30.92;18.77;;;;;;;12.75;100.00;99809.31;10296135;28;20027;-68
2022/11/22 12:15:18;;;;;;;79.85;43.95;;;;;;;13.01;100.00;99839.81;10292036;28;20042;-68
2022/11/22 12:20:36;;;;;;;44.50;27.55;;;;;;;12.96;100.00;99835.06;10286599;28;20089;-68
2022/11/22 12:25:38;;;;;;;24.40;15.73;;;;;;;12.98;100.00;99838.38;10293151;28;20049;-71
2022/11/22 12:30:42;;;;;;;22.30;14.55;;;;;;;12.48;100.00;99770.19;10293857;28;20050;-69
2022/11/22 12:35:44;;;;;;;23.92;15.55;;;;;;;12.99;100.00;99852.53;10291513;28;20038;-68
2022/11/22 12:40:52;;;;;;;22.75;15.05;;;;;;;12.55;100.00;99787.84;10283089;28;20035;-68
2022/11/22 12:45:59;;;;;;;40.78;23.60;;;;;;;12.77;100.00;99823.28;10290129;28;20062;-69
2022/11/22 12:51:08;;;;;;;44.25;26.13;;;;;;;12.72;100.00;99824.88;10291862;28;20038;-69
2022/11/22 12:56:28;;;;;;;61.40;30.40;;;;;;;12.42;100.00;99776.28;10294894;28;20376;-69
2022/11/22 13:01:38;;;;;;;52.03;29.33;;;;;;;12.92;100.00;99864.97;10295274;28;20113;-69
2022/11/22 13:06:52;;;;;;;52.35;29.65;;;;;;;12.94;100.00;99871.75;10291000;28;20549;-69
2022/11/22 13:12:01;;;;;;;30.67;18.52;;;;;;;12.47;100.00;99752.53;10294759;28;20039;-68
2022/11/22 13:17:08;;;;;;;26.13;17.63;;;;;;;12.76;100.00;99804.81;10294661;28;20046;-68
2022/11/22 13:22:31;;;;;;;31.33;19.63;;;;;;;12.85;100.00;99824.13;10288092;28;20039;-70
2022/11/22 13:27:44;;;;;;;38.15;20.50;;;;;;;12.83;100.00;99834.97;10288677;28;20049;-69
2022/11/22 13:32:52;;;;;;;35.40;22.27;;;;;;;12.31;100.00;99759.81;10292890;28;20034;-69
2022/11/22 13:37:56;;;;;;;31.35;20.27;;;;;;;12.81;100.00;99826.38;10293989;28;20042;-69
2022/11/22 13:43:30;;;;;;;33.30;18.45;;;;;;;12.82;100.00;99829.84;10293325;28;20034;-68
2022/11/22 13:48:40;;;;;;;34.13;19.52;;;;;;;12.66;100.00;99817.66;10289638;28;20136;-69
2022/11/22 13:53:45;;;;;;;31.85;20.58;;;;;;;12.60;100.00;99826.44;10293325;28;20047;-70
2022/11/22 13:58:54;;;;;;;33.60;22.70;;;;;;;12.71;100.00;99856.03;10293459;28;20034;-69
2022/11/22 14:04:15;;;;;;;52.78;27.70;;;;;;;12.72;100.00;99846.19;10272370;28;20487;-68
2022/11/22 14:09:39;;;;;;;55.08;29.35;;;;;;;12.66;100.00;99841.63;10292667;28;20038;-69
2022/11/22 14:15:02;;;;;;;30.58;20.73;;;;;;;12.61;100.00;99838.72;10293280;28;20065;-69
2022/11/22 14:20:43;;;;;;;31.05;19.85;;;;;;;12.08;100.00;99745.91;10290870;28;20051;-69
2022/11/22 14:26:05;;;;;;;28.73;18.67;;;;;;;12.49;100.00;99815.25;10291670;28;20034;-69
2022/11/22 14:31:34;;;;;;;34.08;20.45;;;;;;;12.52;100.00;99825.53;10291729;28;20502;-69
2022/11/22 14:36:35;;;;;;;28.65;19.65;;;;;;;12.49;100.00;99825.09;10292888;28;20035;-69
2022/11/22 14:41:36;;;;;;;30.95;18.52;;;;;;;12.51;100.00;99847.88;10291155;28;20481;-69
2022/11/22 14:46:44;;;;;;;24.20;16.40;;;;;;;12.36;100.00;99836.47;10291123;28;20510;-69
2022/11/22 14:51:50;;;;;;;25.65;17.25;;;;;;;12.35;100.00;99818.84;10291421;28;20027;-69
2022/11/22 14:56:52;;;;;;;32.13;19.98;;;;;;;12.50;100.00;99848.06;10274219;28;20049;-69
2022/11/22 15:02:30;;;;;;;32.22;18.58;;;;;;;12.70;100.00;99882.88;10291687;28;20077;-69
2022/11/22 15:07:58;;;;;;;32.38;19.60;;;;;;;12.71;100.00;99876.50;10291766;28;20427;-69
2022/11/22 15:13:35;;;;;;;26.25;17.92;;;;;;;12.72;100.00;99876.31;10291497;28;20126;-69
2022/11/22 15:18:46;;;;;;;33.10;20.05;;;;;;;12.17;100.00;99792.66;10291205;28;20047;-68
2022/11/22 15:23:46;;;;;;;34.22;21.52;;;;;;;12.01;100.00;99769.00;10290641;28;20038;-69
2022/11/22 15:28:49;;;;;;;38.47;20.42;;;;;;;12.66;100.00;99866.44;10290657;28;20035;-69
2022/11/22 15:33:52;;;;;;;28.80;19.13;;;;;;;12.66;100.00;99874.44;10281726;28;20039;-69
2022/11/22 15:38:56;;;;;;;34.92;19.48;;;;;;;12.52;100.00;99844.19;10299146;28;20384;-69
2022/11/22 15:44:00;;;;;;;33.17;20.73;;;;;;;12.57;100.00;99851.63;10298362;28;20034;-69
2022/11/22 15:49:02;;;;;;;35.90;21.10;;;;;;;12.60;100.00;99850.41;10297540;28;20117;-68
2022/11/22 15:54:02;;;;;;;31.92;19.85;;;;;;;12.66;100.00;99861.13;10296981;28;20102;-69
2022/11/22 15:59:10;;;;;;;31.77;19.65;;;;;;;12.51;100.00;99831.06;10298226;28;20030;-68
2022/11/22 16:04:48;;;;;;;36.92;21.45;;;;;;;12.70;100.00;99841.03;10297972;28;20106;-69
2022/11/22 16:09:50;;;;;;;29.50;17.17;;;;;;;12.52;100.00;99822.06;10266101;28;20139;-69
2022/11/22 16:14:51;;;;;;;29.83;18.63;;;;;;;12.29;100.00;99804.47;10296763;28;20030;-69
2022/11/22 16:20:12;;;;;;;28.73;19.02;;;;;;;12.63;100.00;99874.81;10297798;28;20070;-69
2022/11/22 16:25:21;;;;;;;37.08;21.92;;;;;;;12.60;100.00;99863.72;10296203;28;20053;-69
2022/11/22 16:30:22;;;;;;;34.83;22.33;;;;;;;12.42;100.00;99858.88;10295971;28;20368;-68
2022/11/22 16:35:22;;;;;;;38.95;21.58;;;;;;;12.42;100.00;99865.00;10296610;28;20039;-69
2022/11/22 16:40:23;;;;;;;36.33;22.42;;;;;;;12.45;100.00;99840.66;10296432;28;20037;-69
2022/11/22 16:45:24;;;;;;;33.03;20.33;;;;;;;12.36;100.00;99846.31;10295258;28;20046;-69
2022/11/22 16:50:25;;;;;;;32.95;20.98;;;;;;;12.40;100.00;99860.88;10295464;28;20117;-68
2022/11/22 16:55:26;;;;;;;36.08;21.73;;;;;;;12.29;100.00;99855.06;10296022;28;20105;-69
2022/11/22 17:00:26;;;;;;;33.95;21.10;;;;;;;12.34;100.00;99863.28;10295015;28;20084;-69
2022/11/22 17:05:27;;;;;;;36.72;22.50;;;;;;;12.45;100.00;99874.47;10294534;28;20038;-69
2022/11/22 17:10:28;;;;;;;36.17;23.10;;;;;;;12.07;100.00;99813.47;10295555;28;20117;-69
2022/11/22 17:15:30;;;;;;;45.65;24.83;;;;;;;12.44;100.00;99872.81;10294662;28;20576;-69
2022/11/22 17:20:31;;;;;;;31.63;20.42;;;;;;;12.42;100.00;99862.34;10295082;28;20061;-69
2022/11/22 17:25:31;;;;;;;41.03;23.63;;;;;;;11.84;100.00;99789.66;10294342;28;20031;-69
2022/11/22 17:30:32;;;;;;;49.33;27.17;;;;;;;12.45;100.00;99882.47;10294793;28;20098;-69
2022/11/22 17:35:33;;;;;;;44.70;23.25;;;;;;;12.46;100.00;99881.44;10294181;28;20423;-69
2022/11/22 17:40:34;;;;;;;34.28;20.80;;;;;;;12.39;100.00;99861.91;10293412;28;20088;-69
2022/11/22 17:45:41;;;;;;;39.13;23.17;;;;;;;12.44;100.00;99886.13;10276904;28;20050;-69
2022/11/22 17:50:43;;;;;;;105.53;47.40;;;;;;;12.44;100.00;99888.78;10293152;28;20469;-69
2022/11/22 17:55:44;;;;;;;91.72;41.35;;;;;;;12.40;100.00;99891.00;10292237;28;20069;-68
2022/11/22 18:00:45;;;;;;;75.68;34.28;;;;;;;12.41;100.00;99908.63;10293290;28;20129;-68
2022/11/22 18:05:46;;;;;;;112.88;44.13;;;;;;;12.38;100.00;99914.34;10292548;28;20538;-69
2022/11/22 18:10:51;;;;;;;49.17;25.92;;;;;;;12.00;100.00;99833.91;10292254;28;20482;-68
2022/11/22 18:15:53;;;;;;;37.30;21.55;;;;;;;12.34;100.00;99889.13;10293514;28;20370;-69
2022/11/22 18:20:55;;;;;;;41.47;21.52;;;;;;;12.10;100.00;99861.03;10292188;28;20061;-68
2022/11/22 18:25:59;;;;;;;34.88;20.38;;;;;;;12.40;100.00;99922.97;10292522;28;20042;-69
2022/11/22 18:31:00;;;;;;;34.78;19.85;;;;;;;12.36;100.00;99902.25;10291661;28;20113;-69
2022/11/22 18:36:04;;;;;;;28.13;19.05;;;;;;;12.33;100.00;99906.13;10291035;28;20050;-70
2022/11/22 18:41:05;;;;;;;36.65;19.30;;;;;;;12.25;100.00;99882.25;10285625;28;20035;-69
2022/11/22 18:46:06;;;;;;;44.42;22.10;;;;;;;12.35;100.00;99906.72;10274455;28;20059;-71
2022/11/22 18:51:09;;;;;;;39.22;22.20;;;;;;;12.36;100.00;99912.91;10286272;28;20039;-69
2022/11/22 18:56:19;;;;;;;33.17;20.88;;;;;;;11.80;100.00;99938.25;10285772;28;20364;-71
2022/11/22 19:01:22;;;;;;;30.88;19.42;;;;;;;12.20;100.00;100015.16;10289569;28;20427;-68
2022/11/22 19:06:23;;;;;;;36.05;21.45;;;;;;;12.15;100.00;100010.41;10291218;28;20069;-68
2022/11/22 19:11:24;;;;;;;30.60;19.40;;;;;;;12.17;100.00;99997.69;10293744;28;20074;-70
2022/11/22 19:16:28;;;;;;;30.67;18.42;;;;;;;12.15;100.00;100010.41;10291315;28;20046;-69
2022/11/22 19:21:29;;;;;;;31.08;19.40;;;;;;;11.66;100.00;99886.69;10284271;28;20041;-69
2022/11/22 19:26:30;;;;;;;33.35;18.38;;;;;;;12.11;100.00;99947.84;10278871;28;20042;-71
2022/11/22 19:31:31;;;;;;;30.40;18.45;;;;;;;12.07;100.00;99938.59;10273157;28;20068;-69
2022/11/22 19:36:32;;;;;;;242.98;88.05;;;;;;;12.00;100.00;99970.47;10291673;28;20066;-68
2022/11/22 19:41:33;;;;;;;165.43;62.22;;;;;;;11.83;100.00;99963.69;10298876;28;20039;-70
2022/11/22 19:46:35;;;;;;;74.80;33.92;;;;;;;11.28;100.00;99880.72;10296736;28;20035;-69
2022/11/22 19:51:36;;;;;;;48.15;25.77;;;;;;;11.57;100.00;99966.81;10296994;28;20043;-69
2022/11/22 19:56:37;;;;;;;61.97;29.92;;;;;;;10.96;100.00;99935.03;10295187;28;20202;-68
2022/11/22 20:01:38;;;;;;;42.60;21.33;;;;;;;10.90;100.00;99906.53;10296929;28;20039;-69
2022/11/22 20:07:02;;;;;;;74.25;35.45;;;;;;;11.29;100.00;99998.53;10297339;28;20486;-68
2022/11/22 20:12:03;;;;;;;40.40;23.43;;;;;;;11.00;100.00;99994.78;10296940;28;20560;-69
2022/11/22 20:17:04;;;;;;;51.83;29.02;;;;;;;10.89;100.00;99961.50;10290896;28;20051;-68
2022/11/22 20:22:05;;;;;;;48.03;26.77;;;;;;;10.79;100.00;99978.69;10296092;28;20092;-68
2022/11/22 20:27:39;;;;;;;48.50;27.30;;;;;;;10.68;100.00;99995.88;10297130;28;20050;-68
2022/11/22 20:32:40;;;;;;;51.88;28.80;;;;;;;10.14;100.00;99956.88;10294925;28;20038;-68
2022/11/22 20:37:41;;;;;;;80.03;38.90;;;;;;;10.29;100.00;99996.81;10295779;28;20034;-68
2022/11/22 20:42:42;;;;;;;620.13;243.02;;;;;;;10.12;100.00;100006.63;10295034;28;20031;-68
2022/11/22 20:47:43;;;;;;;142.20;51.67;;;;;;;9.92;100.00;100010.69;10295211;28;20035;-68
2022/11/22 20:52:44;;;;;;;95.53;37.83;;;;;;;9.83;100.00;100034.59;10295730;28;20360;-71
2022/11/22 20:57:45;;;;;;;170.85;67.70;;;;;;;9.28;100.00;99965.66;10294452;28;20134;-68
2022/11/22 21:09:01;;;;;;;409.60;193.85;;;;;;;9.37;100.00;100049.47;10292755;28;20418;-68
2022/11/22 21:14:02;;;;;;;201.48;78.30;;;;;;;9.16;100.00;100079.13;10294185;28;20039;-68
2022/11/22 21:19:06;;;;;;;72.13;33.35;;;;;;;8.82;100.00;100032.38;10293982;28;20050;-68
2022/11/22 21:24:13;;;;;;;56.80;27.13;;;;;;;8.41;100.00;99994.44;10293486;28;20074;-70
2022/11/22 21:29:14;;;;;;;44.38;24.23;;;;;;;8.35;100.00;99998.53;10293656;28;20046;-69
2022/11/22 21:34:45;;;;;;;156.85;40.90;;;;;;;8.73;100.00;100082.88;10293195;28;20093;-69
2022/11/22 21:39:45;;;;;;;40.13;22.38;;;;;;;8.45;100.00;100104.31;10294450;28;20034;-69
2022/11/22 21:44:46;;;;;;;61.33;31.15;;;;;;;7.88;100.00;100008.78;10292594;28;20041;-69
2022/11/22 21:49:48;;;;;;;96.13;36.88;;;;;;;8.19;100.00;100060.16;10292025;28;20387;-69
2022/11/22 21:54:52;;;;;;;99.88;36.42;;;;;;;8.39;100.00;100095.19;10292365;28;20034;-70
2022/11/22 21:59:53;;;;;;;80.18;30.75;;;;;;;8.38;100.00;100084.75;10292734;28;20378;-70
2022/11/22 22:04:54;;;;;;;76.72;31.88;;;;;;;8.33;100.00;100102.91;10291230;28;20030;-69
2022/11/22 22:09:54;;;;;;;108.78;39.95;;;;;;;7.74;100.00;100032.19;10292184;28;20043;-69
2022/11/22 22:14:55;;;;;;;85.75;33.20;;;;;;;8.26;100.00;100101.91;10291556;28;20034;-70
2022/11/22 22:19:56;;;;;;;102.40;43.08;;;;;;;8.32;100.00;100117.13;10289504;28;20060;-69
2022/11/22 22:31:21;;;;;;;56.47;25.95;;;;;;;8.22;100.00;100133.94;10288921;28;20121;-69
2022/11/22 22:36:24;;;;;;;49.90;23.25;;;;;;;8.14;100.00;100143.69;10291764;28;20097;-69
2022/11/22 22:41:25;;;;;;;32.58;18.30;;;;;;;7.50;100.00;100075.16;10291188;28;20065;-69
2022/11/22 22:46:44;;;;;;;35.65;19.05;;;;;;;7.93;100.00;100157.28;10291939;28;20536;-69
2022/11/22 22:51:45;;;;;;;31.05;16.42;;;;;;;7.57;100.00;100141.47;10289716;28;20090;-70
2022/11/22 22:56:45;;;;;;;29.13;17.80;;;;;;;7.66;100.00;100171.47;10292173;28;20340;-69
2022/11/22 23:01:46;;;;;;;27.17;15.38;;;;;;;7.38;100.00;100155.69;10292443;28;20038;-69
2022/11/22 23:06:47;;;;;;;32.10;16.60;;;;;;;7.18;100.00;100175.31;10290805;28;20387;-70
2022/11/22 23:17:08;;;;;;;53.50;22.40;;;;;;;6.66;100.00;100128.38;10291375;28;20059;-69
2022/11/22 23:22:09;;;;;;;42.70;20.10;;;;;;;7.08;100.00;100160.34;10290399;28;20476;-70
2022/11/22 23:27:10;;;;;;;53.70;24.60;;;;;;;7.49;100.00;100220.72;10291296;28;20093;-69
2022/11/22 23:32:10;;;;;;;71.32;24.63;;;;;;;7.63;100.00;100225.47;10290186;28;20602;-69
2022/11/22 23:37:11;;;;;;;97.78;23.15;;;;;;;7.14;100.00;100129.03;10291597;28;20471;-69
2022/11/22 23:42:12;;;;;;;70.28;20.38;;;;;;;7.34;100.00;100158.78;10290065;28;20039;-70